createdAt,value
2019-05-11T00:02:16.388Z,43.18
2019-05-11T00:04:47.093Z,43.16
2019-05-11T00:07:17.416Z,43.16
2019-05-11T00:09:57.597Z,43.16
2019-05-11T00:12:20.533Z,43.16
2019-05-11T00:14:51.717Z,43.14
2019-05-11T00:17:21.926Z,43.16
2019-05-11T00:19:52.127Z,43.14
2019-05-11T00:22:22.341Z,43.14
2019-05-11T00:24:52.578Z,43.12
2019-05-11T00:27:22.853Z,43.12
2019-05-11T00:29:53.112Z,43.12
2019-05-11T00:32:23.374Z,43.10
2019-05-11T00:34:53.556Z,43.10
2019-05-11T00:37:23.730Z,43.11
2019-05-11T00:39:53.949Z,43.09
2019-05-11T00:42:24.166Z,43.06
2019-05-11T00:44:54.378Z,43.06
2019-05-11T00:47:24.589Z,43.05
2019-05-11T00:49:54.808Z,43.05
2019-05-11T00:52:24.992Z,43.03
2019-05-11T00:54:55.218Z,43.02
2019-05-11T00:57:25.391Z,43.02
2019-05-11T00:59:55.620Z,43.01
2019-05-11T01:02:25.811Z,43.01
2019-05-11T01:04:56.034Z,42.97
2019-05-11T01:07:26.207Z,42.96
2019-05-11T01:09:57.497Z,42.95
2019-05-11T01:12:26.054Z,42.95
2019-05-11T01:14:56.414Z,42.95
2019-05-11T01:17:26.586Z,42.93
2019-05-11T01:19:56.806Z,42.92
2019-05-11T01:22:26.981Z,42.90
2019-05-11T01:24:57.308Z,42.90
2019-05-11T01:27:27.500Z,42.89
2019-05-11T01:29:57.727Z,42.89
2019-05-11T01:32:28.982Z,42.86
2019-05-11T01:34:59.213Z,42.86
2019-05-11T01:37:29.432Z,42.87
2019-05-11T01:39:59.634Z,42.84
2019-05-11T01:42:29.865Z,42.85
2019-05-11T01:45:00.387Z,42.85
2019-05-11T01:47:30.581Z,42.84
2019-05-11T01:50:01.240Z,42.81
2019-05-11T01:52:31.466Z,42.82
2019-05-11T01:55:01.704Z,42.81
2019-05-11T01:57:31.944Z,42.80
2019-05-11T02:00:02.200Z,42.80
2019-05-11T02:02:33.567Z,42.80
2019-05-11T02:05:21.244Z,42.78
2019-05-11T02:07:51.420Z,42.77
2019-05-11T02:10:21.649Z,42.75
2019-05-11T02:12:51.905Z,42.75
2019-05-11T02:15:22.144Z,42.73
2019-05-11T02:17:52.341Z,42.71
2019-05-11T02:20:22.575Z,42.71
2019-05-11T02:22:54.873Z,42.73
2019-05-11T02:25:25.107Z,42.71
2019-05-11T02:27:55.281Z,42.70
2019-05-11T02:30:25.610Z,42.68
2019-05-11T02:32:55.798Z,42.65
2019-05-11T02:35:26.113Z,42.69
2019-05-11T02:37:56.292Z,42.68
2019-05-11T02:40:26.532Z,42.66
2019-05-11T02:42:56.754Z,42.64
2019-05-11T02:45:37.410Z,42.63
2019-05-11T02:48:07.674Z,42.63
2019-05-11T02:50:40.821Z,42.63
2019-05-11T02:53:10.998Z,42.64
2019-05-11T02:55:41.228Z,42.63
2019-05-11T02:58:11.540Z,42.65
2019-05-11T03:00:42.841Z,42.66
2019-05-11T03:03:13.167Z,42.60
2019-05-11T03:05:43.451Z,42.59
2019-05-11T03:08:13.751Z,42.61
2019-05-11T03:10:43.948Z,42.52
2019-05-11T03:13:14.363Z,41.76
2019-05-11T03:15:44.545Z,41.81
2019-05-11T03:18:15.341Z,41.98
2019-05-11T03:20:45.527Z,41.48
2019-05-11T03:23:15.749Z,41.65
2019-05-11T03:25:45.931Z,41.80
2019-05-11T03:28:16.189Z,41.89
2019-05-11T03:30:46.514Z,41.95
2019-05-11T03:33:16.713Z,41.98
2019-05-11T03:35:46.909Z,41.98
2019-05-11T03:38:17.074Z,41.98
2019-05-11T03:40:47.377Z,41.96
2019-05-11T03:43:17.560Z,41.99
2019-05-11T03:45:47.782Z,41.99
2019-05-11T03:48:18.031Z,42.00
2019-05-11T03:50:48.261Z,41.99
2019-05-11T03:53:18.487Z,41.97
2019-05-11T03:55:48.668Z,41.98
2019-05-11T03:58:18.883Z,42.00
2019-05-11T04:00:49.103Z,41.99
2019-05-11T04:03:19.533Z,41.99
2019-05-11T04:05:49.792Z,41.98
2019-05-11T04:08:19.988Z,41.99
2019-05-11T04:10:50.217Z,42.00
2019-05-11T04:13:20.444Z,41.99
2019-05-11T04:15:50.634Z,41.98
2019-05-11T04:18:20.946Z,42.00
2019-05-11T04:20:51.127Z,42.02
2019-05-11T04:23:21.323Z,42.00
2019-05-11T04:25:51.614Z,41.99
2019-05-11T04:28:21.797Z,41.98
2019-05-11T04:30:52.024Z,41.99
2019-05-11T04:33:22.251Z,41.98
2019-05-11T04:35:52.456Z,41.99
2019-05-11T04:38:22.683Z,41.98
2019-05-11T04:40:54.946Z,41.97
2019-05-11T04:43:25.160Z,41.92
2019-05-11T04:45:55.375Z,41.85
2019-05-11T04:48:25.758Z,41.78
2019-05-11T04:50:56.009Z,41.84
2019-05-11T04:53:26.264Z,41.92
2019-05-11T04:55:56.753Z,41.95
2019-05-11T04:58:27.002Z,41.88
2019-05-11T05:00:57.380Z,41.96
2019-05-11T05:03:40.272Z,41.96
2019-05-11T05:06:20.908Z,41.95
2019-05-11T05:08:31.369Z,41.98
2019-05-11T05:11:01.705Z,42.00
2019-05-11T05:13:31.893Z,42.00
2019-05-11T05:16:02.933Z,42.02
2019-05-11T05:18:33.178Z,42.03
2019-05-11T05:21:03.395Z,41.98
2019-05-11T05:23:33.596Z,42.00
2019-05-11T05:26:03.768Z,42.12
2019-05-11T05:28:33.959Z,42.18
2019-05-11T05:31:04.144Z,42.21
2019-05-11T05:33:34.786Z,42.21
2019-05-11T05:36:05.030Z,42.14
2019-05-11T05:38:35.250Z,42.15
2019-05-11T05:41:05.421Z,42.20
2019-05-11T05:43:35.680Z,42.23
2019-05-11T05:46:05.865Z,42.22
2019-05-11T05:48:36.113Z,42.23
2019-05-11T05:51:06.326Z,42.25
2019-05-11T05:53:36.506Z,42.25
2019-05-11T05:56:06.728Z,42.25
2019-05-11T05:58:36.948Z,42.22
2019-05-11T06:01:10.104Z,42.24
2019-05-11T06:03:39.274Z,42.22
2019-05-11T06:06:09.444Z,42.24
2019-05-11T06:08:43.039Z,42.21
2019-05-11T06:11:11.504Z,42.21
2019-05-11T06:13:45.497Z,42.22
2019-05-11T06:16:13.942Z,42.23
2019-05-11T06:18:44.390Z,42.23
2019-05-11T06:21:14.797Z,42.23
2019-05-11T06:23:45.204Z,42.22
2019-05-11T06:26:15.607Z,42.22
2019-05-11T06:28:45.977Z,42.22
2019-05-11T06:31:16.593Z,42.21
2019-05-11T06:33:46.977Z,42.22
2019-05-11T06:36:17.244Z,42.21
2019-05-11T06:38:47.532Z,42.20
2019-05-11T06:41:17.951Z,42.19
2019-05-11T06:44:01.419Z,42.20
2019-05-11T06:46:20.238Z,42.19
2019-05-11T06:48:50.620Z,42.20
2019-05-11T06:51:21.094Z,42.18
2019-05-11T06:53:51.482Z,42.19
2019-05-11T06:56:21.948Z,42.18
2019-05-11T06:58:52.420Z,42.17
2019-05-11T07:01:22.867Z,42.17
2019-05-11T07:03:53.233Z,42.14
2019-05-11T07:06:26.174Z,42.16
2019-05-11T07:08:55.514Z,42.18
2019-05-11T07:11:25.712Z,42.17
2019-05-11T07:13:56.151Z,42.17
2019-05-11T07:16:26.549Z,42.17
2019-05-11T07:18:57.015Z,42.15
2019-05-11T07:21:27.285Z,42.15
2019-05-11T07:23:57.701Z,42.16
2019-05-11T07:26:28.330Z,42.16
2019-05-11T07:28:58.623Z,42.15
2019-05-11T07:31:29.067Z,42.15
2019-05-11T07:33:59.535Z,42.16
2019-05-11T07:36:30.014Z,42.17
2019-05-11T07:39:00.322Z,42.16
2019-05-11T07:41:30.813Z,42.14
2019-05-11T07:44:01.276Z,42.16
2019-05-11T07:46:31.703Z,42.15
2019-05-11T07:49:02.044Z,42.16
2019-05-11T07:51:32.470Z,42.15
2019-05-11T07:54:03.128Z,42.16
2019-05-11T07:56:33.615Z,42.17
2019-05-11T07:59:03.931Z,42.17
2019-05-11T08:01:34.262Z,42.17
2019-05-11T08:04:04.697Z,42.17
2019-05-11T08:06:35.023Z,42.17
2019-05-11T08:09:08.349Z,42.18
2019-05-11T08:11:39.120Z,42.20
2019-05-11T08:14:10.416Z,42.21
2019-05-11T08:16:40.672Z,42.20
2019-05-11T08:19:11.155Z,42.20
2019-05-11T08:21:41.524Z,42.21
2019-05-11T08:24:11.995Z,42.21
2019-05-11T08:26:42.293Z,42.22
2019-05-11T08:29:12.687Z,42.22
2019-05-11T08:31:42.979Z,42.24
2019-05-11T08:34:13.298Z,42.23
2019-05-11T08:36:43.962Z,42.25
2019-05-11T08:39:14.410Z,42.25
2019-05-11T08:41:44.743Z,42.23
2019-05-11T08:44:15.141Z,42.25
2019-05-11T08:46:47.681Z,42.23
2019-05-11T08:49:18.981Z,42.26
2019-05-11T08:51:49.709Z,42.26
2019-05-11T08:54:20.297Z,42.26
2019-05-11T08:56:50.630Z,42.30
2019-05-11T08:59:21.044Z,42.28
2019-05-11T09:01:51.281Z,42.28
2019-05-11T09:04:22.531Z,42.25
2019-05-11T09:06:52.914Z,42.29
2019-05-11T09:09:24.061Z,42.29
2019-05-11T09:11:54.368Z,42.33
2019-05-11T09:14:24.689Z,42.34
2019-05-11T09:16:57.590Z,42.32
2019-05-11T09:19:28.457Z,42.32
2019-05-11T09:21:59.093Z,42.33
2019-05-11T09:24:29.509Z,42.31
2019-05-11T09:26:59.901Z,42.32
2019-05-11T09:29:30.284Z,42.34
2019-05-11T09:32:00.702Z,42.35
2019-05-11T09:34:31.079Z,42.32
2019-05-11T09:37:02.036Z,42.32
2019-05-11T09:39:32.492Z,42.32
2019-05-11T09:42:02.976Z,42.35
2019-05-11T09:44:34.571Z,42.34
2019-05-11T09:47:04.790Z,42.34
2019-05-11T09:49:46.422Z,42.35
2019-05-11T09:52:09.538Z,42.37
2019-05-11T09:54:40.061Z,42.36
2019-05-11T09:57:10.430Z,42.36
2019-05-11T09:59:40.773Z,42.36
2019-05-11T10:02:11.243Z,42.37
2019-05-11T10:04:41.669Z,42.36
2019-05-11T10:07:11.990Z,42.38
2019-05-11T10:09:42.460Z,42.38
2019-05-11T10:12:12.870Z,42.38
2019-05-11T10:14:43.324Z,42.36
2019-05-11T10:17:13.769Z,42.37
2019-05-11T10:19:46.750Z,42.39
2019-05-11T10:22:18.419Z,42.41
2019-05-11T10:24:48.357Z,42.41
2019-05-11T10:27:19.027Z,42.42
2019-05-11T10:29:49.619Z,42.40
2019-05-11T10:32:19.911Z,42.40
2019-05-11T10:34:51.354Z,42.41
2019-05-11T10:37:21.737Z,42.43
2019-05-11T10:39:52.013Z,42.42
2019-05-11T10:42:22.392Z,42.46
2019-05-11T10:44:52.860Z,42.46
2019-05-11T10:47:23.332Z,42.44
2019-05-11T10:49:53.767Z,42.47
2019-05-11T10:52:24.098Z,42.45
2019-05-11T10:54:54.627Z,42.49
2019-05-11T10:57:25.051Z,42.51
2019-05-11T10:59:57.827Z,42.51
2019-05-11T11:02:27.983Z,42.53
2019-05-11T11:04:58.946Z,42.51
2019-05-11T11:07:29.326Z,42.54
2019-05-11T11:09:59.697Z,42.55
2019-05-11T11:12:30.064Z,42.57
2019-05-11T11:15:00.537Z,42.56
2019-05-11T11:17:31.507Z,42.57
2019-05-11T11:20:02.151Z,42.59
2019-05-11T11:22:39.964Z,42.58
2019-05-11T11:25:05.111Z,42.61
2019-05-11T11:27:37.917Z,42.61
2019-05-11T11:30:09.177Z,42.62
2019-05-11T11:32:39.971Z,42.62
2019-05-11T11:35:10.251Z,42.62
2019-05-11T11:37:40.722Z,42.62
2019-05-11T11:40:11.529Z,42.67
2019-05-11T11:42:43.073Z,42.65
2019-05-11T11:45:13.393Z,42.63
2019-05-11T11:47:43.785Z,42.67
2019-05-11T11:50:14.355Z,42.67
2019-05-11T11:52:47.737Z,42.68
2019-05-11T11:55:19.345Z,42.70
2019-05-11T11:57:50.512Z,42.70
2019-05-11T12:00:20.987Z,42.73
2019-05-11T12:02:51.406Z,42.75
2019-05-11T12:05:21.686Z,42.76
2019-05-11T12:07:52.208Z,42.82
2019-05-11T12:10:22.486Z,42.80
2019-05-11T12:12:54.359Z,42.82
2019-05-11T12:15:24.909Z,42.83
2019-05-11T12:17:55.395Z,42.83
2019-05-11T12:20:28.468Z,42.85
2019-05-11T12:22:58.614Z,42.86
2019-05-11T12:25:29.131Z,42.86
2019-05-11T12:27:59.404Z,42.91
2019-05-11T12:30:29.703Z,42.89
2019-05-11T12:33:00.207Z,42.92
2019-05-11T12:35:30.682Z,42.91
2019-05-11T12:38:01.028Z,42.94
2019-05-11T12:40:32.750Z,42.92
2019-05-11T12:43:03.109Z,42.93
2019-05-11T12:45:33.686Z,42.92
2019-05-11T12:48:04.077Z,42.94
2019-05-11T12:50:34.387Z,42.95
2019-05-11T12:53:04.667Z,42.95
2019-05-11T12:55:33.304Z,42.98
2019-05-11T12:58:02.308Z,42.96
2019-05-11T13:00:32.936Z,42.97
2019-05-11T13:03:04.437Z,42.97
2019-05-11T13:05:34.806Z,42.99
2019-05-11T13:08:07.764Z,43.01
2019-05-11T13:10:39.385Z,42.99
2019-05-11T13:13:09.778Z,43.00
2019-05-11T13:15:40.203Z,43.01
2019-05-11T13:18:10.980Z,43.04
2019-05-11T13:20:41.368Z,43.05
2019-05-11T13:23:11.772Z,43.05
2019-05-11T13:25:42.164Z,43.06
2019-05-11T13:28:12.573Z,43.07
2019-05-11T13:30:43.005Z,43.08
2019-05-11T13:33:13.396Z,43.12
2019-05-11T13:35:43.805Z,43.11
2019-05-11T13:38:14.291Z,43.13
2019-05-11T13:40:44.675Z,43.12
2019-05-11T13:43:15.136Z,43.13
2019-05-11T13:45:45.408Z,43.13
2019-05-11T13:48:17.730Z,43.15
2019-05-11T13:50:48.145Z,43.15
2019-05-11T13:53:18.622Z,43.16
2019-05-11T13:55:48.969Z,43.18
2019-05-11T13:58:20.081Z,43.20
2019-05-11T14:00:50.457Z,43.17
2019-05-11T14:03:20.749Z,43.17
2019-05-11T14:05:51.242Z,43.18
2019-05-11T14:08:21.767Z,43.20
2019-05-11T14:10:52.195Z,43.19
2019-05-11T14:13:22.582Z,43.21
2019-05-11T14:15:53.061Z,43.21
2019-05-11T14:18:23.411Z,43.22
2019-05-11T14:20:53.758Z,43.19
2019-05-11T14:23:24.229Z,43.24
2019-05-11T14:25:54.608Z,43.25
2019-05-11T14:28:24.984Z,43.25
2019-05-11T14:30:57.714Z,43.26
2019-05-11T14:33:28.232Z,43.27
2019-05-11T14:35:58.817Z,43.26
2019-05-11T14:38:29.114Z,43.26
2019-05-11T14:40:59.390Z,43.30
2019-05-11T14:43:29.729Z,43.29
2019-05-11T14:46:00.322Z,43.28
2019-05-11T14:48:32.047Z,43.34
2019-05-11T14:51:02.405Z,43.34
2019-05-11T14:53:32.740Z,43.34
2019-05-11T14:56:03.030Z,43.34
2019-05-11T14:58:33.390Z,43.36
2019-05-11T15:01:03.804Z,43.37
2019-05-11T15:03:34.298Z,43.36
2019-05-11T15:06:04.712Z,43.37
2019-05-11T15:08:35.130Z,43.39
2019-05-11T15:11:05.318Z,43.40
2019-05-11T15:13:37.999Z,43.39
2019-05-11T15:16:08.205Z,43.41
2019-05-11T15:18:41.878Z,43.39
2019-05-11T15:21:10.671Z,43.44
2019-05-11T15:23:41.264Z,43.41
2019-05-11T15:26:11.480Z,43.43
2019-05-11T15:28:41.792Z,43.46
2019-05-11T15:31:12.080Z,43.48
2019-05-11T15:33:42.346Z,43.47
2019-05-11T15:36:12.700Z,43.46
2019-05-11T15:38:43.089Z,43.46
2019-05-11T15:41:13.420Z,43.47
2019-05-11T15:43:43.732Z,43.46
2019-05-11T15:46:14.132Z,43.46
2019-05-11T15:48:56.781Z,43.46
2019-05-11T15:51:18.517Z,43.46
2019-05-11T15:53:50.262Z,43.50
2019-05-11T15:56:20.987Z,43.50
2019-05-11T15:58:51.416Z,43.52
2019-05-11T16:01:22.420Z,43.54
2019-05-11T16:03:52.925Z,43.54
2019-05-11T16:06:23.387Z,43.56
2019-05-11T16:08:53.708Z,43.54
2019-05-11T16:11:25.447Z,43.56
2019-05-11T16:13:55.741Z,43.54
2019-05-11T16:16:28.006Z,43.54
2019-05-11T16:19:10.534Z,43.56
2019-05-11T16:21:32.641Z,43.54
2019-05-11T16:24:03.061Z,43.54
2019-05-11T16:26:35.548Z,43.53
2019-05-11T16:29:11.069Z,43.53
2019-05-11T16:31:38.129Z,43.53
2019-05-11T16:34:08.557Z,43.52
2019-05-11T16:36:39.159Z,43.51
2019-05-11T16:39:10.420Z,43.50
2019-05-11T16:41:42.305Z,43.51
2019-05-11T16:44:12.685Z,43.51
2019-05-11T16:46:43.148Z,43.53
2019-05-11T16:49:24.854Z,43.54
2019-05-11T16:51:45.508Z,43.52
2019-05-11T16:54:15.924Z,43.53
2019-05-11T16:56:48.526Z,43.52
2019-05-11T16:59:18.375Z,43.49
2019-05-11T17:01:51.027Z,43.51
2019-05-11T17:04:21.497Z,43.52
2019-05-11T17:06:51.814Z,43.50
2019-05-11T17:09:22.227Z,43.50
2019-05-11T17:11:52.561Z,43.49
2019-05-11T17:14:28.050Z,43.51
2019-05-11T17:16:58.606Z,43.52
2019-05-11T17:19:42.944Z,43.57
2019-05-11T17:22:01.747Z,43.60
2019-05-11T17:24:33.149Z,43.58
2019-05-11T17:27:03.605Z,43.68
2019-05-11T17:29:34.148Z,43.83
2019-05-11T17:32:04.601Z,43.89
2019-05-11T17:34:35.030Z,43.95
2019-05-11T17:37:08.862Z,43.93
2019-05-11T17:39:39.018Z,43.84
2019-05-11T17:42:09.929Z,43.75
2019-05-11T17:44:40.327Z,43.71
2019-05-11T17:47:10.660Z,43.59
2019-05-11T17:49:55.982Z,43.60
2019-05-11T17:52:13.140Z,43.55
2019-05-11T17:54:43.554Z,43.51
2019-05-11T17:57:15.431Z,43.55
2019-05-11T17:59:47.641Z,42.90
2019-05-11T18:02:18.249Z,42.54
2019-05-11T18:04:49.408Z,42.92
2019-05-11T18:07:27.171Z,42.92
2019-05-11T18:09:52.837Z,43.27
2019-05-11T18:12:23.317Z,43.38
2019-05-11T18:14:54.713Z,43.07
2019-05-11T18:17:24.892Z,42.91
2019-05-11T18:19:55.298Z,42.39
2019-05-11T18:22:28.335Z,42.49
2019-05-11T18:24:58.175Z,42.52
2019-05-11T18:27:28.705Z,42.66
2019-05-11T18:29:59.273Z,42.81
2019-05-11T18:32:29.705Z,43.05
2019-05-11T18:35:00.110Z,43.18
2019-05-11T18:37:32.468Z,43.17
2019-05-11T18:40:02.991Z,43.04
2019-05-11T18:42:33.588Z,42.92
2019-05-11T18:45:04.042Z,42.61
2019-05-11T18:47:34.640Z,42.44
2019-05-11T18:50:05.397Z,42.10
2019-05-11T18:52:35.822Z,41.63
2019-05-11T18:55:08.362Z,41.15
2019-05-11T18:57:38.579Z,40.79
2019-05-11T19:00:09.550Z,40.94
2019-05-11T19:02:40.018Z,41.17
2019-05-11T19:05:11.265Z,41.40
2019-05-11T19:07:41.638Z,41.61
2019-05-11T19:10:12.141Z,41.80
2019-05-11T19:12:42.503Z,41.93
2019-05-11T19:15:12.911Z,42.05
2019-05-11T19:17:43.369Z,42.19
2019-05-11T19:20:13.943Z,41.72
2019-05-11T19:22:44.439Z,41.03
2019-05-11T19:25:13.094Z,40.90
2019-05-11T19:27:43.772Z,40.71
2019-05-11T19:30:14.152Z,40.47
2019-05-11T19:32:44.577Z,40.34
2019-05-11T19:35:17.584Z,40.25
2019-05-11T19:37:49.646Z,40.25
2019-05-11T19:40:21.250Z,40.21
2019-05-11T19:42:55.096Z,40.19
2019-05-11T19:45:29.606Z,40.32
2019-05-11T19:48:00.218Z,40.41
2019-05-11T19:50:31.538Z,40.41
2019-05-11T19:53:04.716Z,40.35
2019-05-11T19:55:35.293Z,40.19
2019-05-11T19:58:05.587Z,40.03
2019-05-11T20:00:37.877Z,40.37
2019-05-11T20:03:08.973Z,41.22
2019-05-11T20:05:40.750Z,41.51
2019-05-11T20:08:11.302Z,41.67
2019-05-11T20:10:41.560Z,41.59
2019-05-11T20:13:11.955Z,41.60
2019-05-11T20:15:42.461Z,41.63
2019-05-11T20:18:12.674Z,41.70
2019-05-11T20:20:43.081Z,41.75
2019-05-11T20:23:13.365Z,41.80
2019-05-11T20:25:43.949Z,41.82
2019-05-11T20:28:14.339Z,41.90
2019-05-11T20:30:48.284Z,41.90
2019-05-11T20:33:20.261Z,41.98
2019-05-11T20:35:50.783Z,42.00
2019-05-11T20:38:21.250Z,42.06
2019-05-11T20:40:51.827Z,42.08
2019-05-11T20:43:22.145Z,42.11
2019-05-11T20:45:52.424Z,42.13
2019-05-11T20:48:22.848Z,41.88
2019-05-11T20:50:53.170Z,41.96
2019-05-11T20:53:23.632Z,42.04
2019-05-11T20:55:54.024Z,42.12
2019-05-11T20:58:24.445Z,42.17
2019-05-11T21:00:55.012Z,42.32
2019-05-11T21:03:27.570Z,42.46
2019-05-11T21:05:58.639Z,43.06
2019-05-11T21:08:29.262Z,43.27
2019-05-11T21:10:59.522Z,43.36
2019-05-11T21:13:29.804Z,43.51
2019-05-11T21:16:00.085Z,43.58
2019-05-11T21:18:31.348Z,43.66
2019-05-11T21:21:01.801Z,43.72
2019-05-11T21:23:32.168Z,43.75
2019-05-11T21:26:02.709Z,43.84
2019-05-11T21:28:33.072Z,43.93
2019-05-11T21:31:03.499Z,43.98
2019-05-11T21:33:33.981Z,43.99
2019-05-11T21:36:04.199Z,44.05
2019-05-11T21:38:34.582Z,44.11
2019-05-11T21:41:04.826Z,44.20
2019-05-11T21:43:37.294Z,44.22
2019-05-11T21:46:08.213Z,44.22
2019-05-11T21:48:38.678Z,44.28
2019-05-11T21:51:09.210Z,44.28
2019-05-11T21:53:39.589Z,44.36
2019-05-11T21:56:10.043Z,44.34
2019-05-11T21:58:40.501Z,44.40
2019-05-11T22:01:11.132Z,44.49
2019-05-11T22:03:41.584Z,44.50
2019-05-11T22:06:11.777Z,44.51
2019-05-11T22:08:42.137Z,44.52
2019-05-11T22:11:14.272Z,44.57
2019-05-11T22:13:44.950Z,44.61
2019-05-11T22:16:15.343Z,44.61
2019-05-11T22:18:45.945Z,44.67
2019-05-11T22:21:18.627Z,44.72
2019-05-11T22:23:50.662Z,44.74
2019-05-11T22:26:21.057Z,44.74
2019-05-11T22:28:51.434Z,44.71
2019-05-11T22:31:21.914Z,44.75
2019-05-11T22:33:52.128Z,44.82
2019-05-11T22:36:22.537Z,44.77
2019-05-11T22:38:53.002Z,44.80
2019-05-11T22:41:23.356Z,44.84
2019-05-11T22:43:53.768Z,44.86
2019-05-11T22:46:24.198Z,44.87
2019-05-11T22:48:54.575Z,44.87
2019-05-11T22:51:25.050Z,44.89
2019-05-11T22:53:55.263Z,44.92
2019-05-11T22:56:25.545Z,44.92
2019-05-11T22:58:55.957Z,44.92
2019-05-11T23:01:28.189Z,44.95
2019-05-11T23:03:58.595Z,44.94
2019-05-11T23:06:29.034Z,45.00
2019-05-11T23:08:59.609Z,45.02
2019-05-11T23:11:29.985Z,45.01
2019-05-11T23:14:00.499Z,45.04
2019-05-11T23:16:31.945Z,45.09
2019-05-11T23:19:02.387Z,45.11
2019-05-11T23:21:32.712Z,45.05
2019-05-11T23:24:03.138Z,45.13
2019-05-11T23:26:33.561Z,45.08
2019-05-11T23:29:03.928Z,45.05
2019-05-11T23:31:35.277Z,45.14
2019-05-11T23:34:05.487Z,45.24
2019-05-11T23:36:38.130Z,45.19
2019-05-11T23:39:09.123Z,45.18
2019-05-11T23:41:39.656Z,45.20
2019-05-11T23:44:10.060Z,45.24
2019-05-11T23:46:40.363Z,45.28
2019-05-11T23:49:10.756Z,45.23
2019-05-11T23:51:41.186Z,45.31
2019-05-11T23:54:11.664Z,45.37
2019-05-11T23:56:42.036Z,45.41
2019-05-11T23:59:12.500Z,45.35
